Time;durP1;ratioP1;P1;durP2;ratioP2;P2;SDS_P1;SDS_P2;PMS_P1;PMS_P2;Temp;Humidity;BMP_temperature;BMP_pressure;BME280_temperature;BME280_humidity;BME280_pressure;Samples;Min_cycle;Max_cycle;Signal;HPM_P1;HPM_P2
2021/10/31 00:01:35;;;;;;;6.47;4.50;;;;;;;13.94;75.14;99392.81;5033712;28;20484;-62
2021/10/31 00:04:02;;;;;;;6.35;4.85;;;;;;;14.05;74.67;99393.06;5033663;28;20072;-63
2021/10/31 00:06:29;;;;;;;5.95;5.07;;;;;;;14.15;74.70;99393.31;5033953;28;20049;-63
2021/10/31 00:08:57;;;;;;;5.40;4.90;;;;;;;14.01;75.10;99387.38;5033652;28;20076;-62
2021/10/31 00:11:24;;;;;;;5.35;4.70;;;;;;;14.17;74.16;99390.97;5033729;28;20053;-63
2021/10/31 00:13:53;;;;;;;6.10;5.50;;;;;;;14.13;74.65;99400.44;5033314;28;20054;-63
2021/10/31 00:16:20;;;;;;;6.65;5.43;;;;;;;14.19;74.21;99399.81;5032593;28;20065;-63
2021/10/31 00:18:47;;;;;;;6.88;6.28;;;;;;;14.13;74.66;99408.84;5020414;28;20046;-63
2021/10/31 00:21:15;;;;;;;6.53;5.88;;;;;;;14.18;74.06;99408.59;5014341;28;20053;-63
2021/10/31 00:23:42;;;;;;;6.70;5.50;;;;;;;14.16;74.49;99405.34;5013980;28;20050;-63
2021/10/31 00:26:09;;;;;;;7.00;5.65;;;;;;;13.99;75.14;99406.53;5013899;28;20053;-63
2021/10/31 00:28:37;;;;;;;6.70;6.00;;;;;;;14.15;74.65;99407.31;5014042;28;20045;-63
2021/10/31 00:31:05;;;;;;;6.80;6.05;;;;;;;14.29;73.98;99414.41;5013272;28;20057;-62
2021/10/31 00:33:33;;;;;;;6.40;5.80;;;;;;;14.32;73.93;99414.50;5025459;28;20136;-63
2021/10/31 00:36:00;;;;;;;6.30;5.70;;;;;;;14.32;73.95;99411.72;5033065;28;20064;-63
2021/10/31 00:38:28;;;;;;;9.65;6.55;;;;;;;14.35;73.28;99415.75;5031241;28;20049;-63
2021/10/31 00:40:55;;;;;;;6.57;5.70;;;;;;;14.40;73.24;99421.06;5017777;28;20054;-62
2021/10/31 00:43:22;;;;;;;6.43;5.82;;;;;;;14.40;73.39;99421.91;5013490;28;20404;-63
2021/10/31 00:45:50;;;;;;;6.65;5.95;;;;;;;14.36;73.56;99425.78;5013256;28;20058;-62
2021/10/31 00:48:18;;;;;;;7.65;6.95;;;;;;;14.29;73.81;99414.41;5025750;28;20049;-63
2021/10/31 00:50:51;;;;;;;8.13;7.32;;;;;;;14.09;74.42;99413.53;5032504;28;20058;-63
2021/10/31 00:53:19;;;;;;;8.18;7.38;;;;;;;14.18;73.58;99420.59;5032853;28;20056;-63
2021/10/31 00:55:46;;;;;;;8.73;7.82;;;;;;;14.17;73.78;99412.53;5033149;28;20053;-63
2021/10/31 00:58:14;;;;;;;8.50;7.55;;;;;;;14.10;73.80;99416.00;5032848;28;20058;-63
2021/10/31 01:00:42;;;;;;;9.23;8.40;;;;;;;13.86;75.15;99416.19;5033042;28;20487;-63
2021/10/31 01:03:09;;;;;;;9.27;8.25;;;;;;;13.98;74.38;99422.53;5032412;28;20057;-63
2021/10/31 01:05:46;;;;;;;9.32;8.35;;;;;;;13.93;74.39;99427.59;5032668;28;20060;-63
2021/10/31 01:08:32;;;;;;;8.85;7.95;;;;;;;13.93;73.83;99433.19;5032177;28;20073;-63
2021/10/31 01:11:17;;;;;;;8.20;7.40;;;;;;;13.87;74.56;99426.22;5031605;28;20093;-63
2021/10/31 01:14:14;;;;;;;8.98;8.07;;;;;;;13.75;75.08;99425.16;5032507;28;20056;-63
2021/10/31 01:16:52;;;;;;;9.20;8.02;;;;;;;13.80;74.04;99427.69;5032710;28;20119;-63
2021/10/31 01:19:39;;;;;;;10.85;8.90;;;;;;;13.74;74.98;99426.31;5032704;28;20057;-63
2021/10/31 01:22:14;;;;;;;9.57;8.63;;;;;;;13.64;75.06;99424.06;5032252;28;20049;-63
2021/10/31 01:24:57;;;;;;;12.05;9.82;;;;;;;13.54;75.56;99427.41;5032345;28;20057;-63
2021/10/31 01:27:35;;;;;;;11.40;9.88;;;;;;;13.57;74.93;99430.31;5032644;28;20053;-62
2021/10/31 01:30:10;;;;;;;11.82;10.55;;;;;;;13.58;74.48;99431.09;5032265;28;20056;-63
2021/10/31 01:32:53;;;;;;;11.57;10.18;;;;;;;13.52;74.92;99427.78;5032935;28;20061;-63
2021/10/31 01:35:33;;;;;;;12.32;10.95;;;;;;;13.50;74.65;99434.88;5032367;28;20499;-63
2021/10/31 01:38:07;;;;;;;;;;;;;;;13.43;75.21;99434.72;5032681;28;20381;-63
2021/10/31 01:40:44;;;;;;;11.00;9.77;;;;;;;13.33;75.49;99434.09;5032066;28;20265;-63
2021/10/31 01:43:23;;;;;;;12.75;10.57;;;;;;;13.31;75.35;99441.19;5032056;28;20076;-63
2021/10/31 01:45:58;;;;;;;11.50;10.25;;;;;;;13.28;75.33;99441.88;5032447;28;20049;-63
2021/10/31 01:48:31;;;;;;;12.45;10.82;;;;;;;13.24;75.75;99438.97;5017989;28;20046;-63
2021/10/31 01:51:01;;;;;;;11.27;10.07;;;;;;;13.22;75.56;99432.94;5012406;28;20053;-63
2021/10/31 01:53:32;;;;;;;12.70;10.35;;;;;;;13.20;75.73;99443.66;5014742;28;20064;-63
2021/10/31 01:56:04;;;;;;;11.35;10.18;;;;;;;13.15;75.42;99444.72;5031756;28;20069;-63
2021/10/31 01:58:35;;;;;;;12.63;10.80;;;;;;;13.17;75.62;99445.19;5031943;28;20464;-63
2021/10/31 02:01:05;;;;;;;12.05;10.43;;;;;;;13.07;75.61;99445.69;5031896;28;20060;-63
2021/10/31 02:03:34;;;;;;;15.70;10.55;;;;;;;13.12;75.14;99441.81;5032084;28;20054;-62
2021/10/31 02:06:03;;;;;;;11.73;10.32;;;;;;;13.12;75.09;99448.25;5031271;28;20060;-63
2021/10/31 02:08:34;;;;;;;12.60;11.05;;;;;;;13.10;75.14;99441.38;5031639;28;20501;-63
2021/10/31 02:11:03;;;;;;;14.20;10.55;;;;;;;13.09;74.40;99445.34;5032043;28;20056;-62
2021/10/31 02:13:34;;;;;;;11.95;10.20;;;;;;;13.02;74.70;99448.78;5031841;28;20049;-63
2021/10/31 02:16:01;;;;;;;12.35;11.05;;;;;;;12.97;73.77;99451.81;5031840;28;20061;-63
2021/10/31 02:18:29;;;;;;;13.57;11.00;;;;;;;12.83;74.52;99465.34;5032067;28;20065;-63
2021/10/31 02:20:59;;;;;;;12.05;10.45;;;;;;;12.83;73.92;99463.41;5032135;28;20045;-63
2021/10/31 02:23:28;;;;;;;12.50;10.27;;;;;;;12.74;73.67;99468.28;5034037;28;20510;-63
2021/10/31 02:25:57;;;;;;;14.45;10.55;;;;;;;12.62;74.13;99471.97;5035536;28;20053;-63
2021/10/31 02:28:24;;;;;;;14.55;10.57;;;;;;;12.47;74.14;99473.47;5035714;28;20049;-63
2021/10/31 02:30:52;;;;;;;15.45;10.52;;;;;;;12.37;74.61;99485.97;5035759;28;20053;-63
2021/10/31 02:33:19;;;;;;;12.52;9.82;;;;;;;12.26;75.07;99484.78;5035515;28;20065;-63
2021/10/31 02:35:46;;;;;;;15.65;11.20;;;;;;;12.26;75.33;99483.97;5035339;28;20057;-62
2021/10/31 02:38:13;;;;;;;17.13;12.18;;;;;;;12.22;76.32;99488.63;5034980;28;20400;-63
2021/10/31 02:40:42;;;;;;;15.48;12.40;;;;;;;12.10;77.32;99503.41;5035717;28;20049;-63
2021/10/31 02:43:10;;;;;;;16.20;12.33;;;;;;;12.12;76.73;99499.09;5035240;28;20057;-63
2021/10/31 02:45:37;;;;;;;17.50;13.48;;;;;;;12.21;76.54;99499.00;5035741;28;20412;-63
2021/10/31 02:48:08;;;;;;;15.10;12.05;;;;;;;12.25;75.74;99494.34;5035041;28;20053;-63
2021/10/31 02:50:39;;;;;;;17.83;11.98;;;;;;;12.19;75.47;99490.16;5035189;28;20065;-62
2021/10/31 02:53:15;;;;;;;15.80;11.82;;;;;;;12.10;75.31;99481.91;5034475;28;20056;-63
2021/10/31 02:55:56;;;;;;;17.80;13.35;;;;;;;11.98;76.49;99479.91;5034837;28;20060;-63
2021/10/31 02:58:33;;;;;;;24.05;14.80;;;;;;;11.95;77.16;99474.22;5035253;28;20057;-63
2021/10/31 03:01:02;;;;;;;19.88;13.48;;;;;;;11.93;77.27;99470.97;5034984;28;20054;-63
2021/10/31 03:03:33;;;;;;;22.45;15.43;;;;;;;11.97;77.15;99477.47;5035462;28;20385;-63
2021/10/31 03:06:01;;;;;;;20.83;14.82;;;;;;;11.90;77.91;99477.22;5034402;28;20057;-62
2021/10/31 03:08:29;;;;;;;18.92;13.15;;;;;;;11.90;77.50;99471.66;5035025;28;20503;-61
2021/10/31 03:11:01;;;;;;;15.48;11.55;;;;;;;11.85;78.07;99483.03;5035483;28;20499;-64
2021/10/31 03:13:29;;;;;;;17.48;13.00;;;;;;;11.90;78.19;99471.66;5034605;28;20049;-64
2021/10/31 03:15:57;;;;;;;18.85;13.23;;;;;;;11.86;78.06;99467.91;5033902;28;20515;-63
2021/10/31 03:18:24;;;;;;;19.58;13.45;;;;;;;11.84;78.48;99471.03;5034705;28;20511;-64
2021/10/31 03:20:51;;;;;;;21.83;13.50;;;;;;;11.88;78.19;99479.53;5035110;28;20053;-63
2021/10/31 03:23:19;;;;;;;19.23;12.98;;;;;;;11.90;78.22;99478.03;5034282;28;20053;-64
2021/10/31 03:25:56;;;;;;;18.17;12.68;;;;;;;11.88;77.87;99491.53;5034787;28;20054;-62
2021/10/31 03:28:25;;;;;;;15.98;13.13;;;;;;;11.99;76.86;99486.31;5034344;28;20057;-64
2021/10/31 03:30:52;;;;;;;21.00;13.17;;;;;;;11.93;77.59;99482.13;5034299;28;20485;-64
2021/10/31 03:33:20;;;;;;;19.13;12.98;;;;;;;11.89;77.80;99490.38;5034562;28;20485;-64
2021/10/31 03:35:47;;;;;;;18.27;12.55;;;;;;;11.92;77.50;99488.88;5033951;28;20484;-64
2021/10/31 03:38:14;;;;;;;20.17;13.68;;;;;;;11.89;77.43;99476.44;5034673;28;20057;-64
2021/10/31 03:40:41;;;;;;;23.88;14.48;;;;;;;11.88;77.69;99476.72;5034732;28;20053;-64
2021/10/31 03:43:09;;;;;;;21.30;14.25;;;;;;;11.93;77.37;99476.56;5034436;28;20077;-63
2021/10/31 03:45:39;;;;;;;18.45;13.80;;;;;;;11.95;77.06;99475.03;5033914;28;20515;-64
2021/10/31 03:48:07;;;;;;;22.25;13.77;;;;;;;11.83;77.24;99474.19;5022723;28;20061;-64
2021/10/31 03:50:34;;;;;;;18.27;12.73;;;;;;;11.78;77.87;99478.03;5014502;28;20058;-64
2021/10/31 03:53:01;;;;;;;19.40;13.15;;;;;;;11.76;78.38;99467.19;5014417;28;20058;-63
2021/10/31 03:55:29;;;;;;;19.08;12.75;;;;;;;11.67;78.61;99463.69;5014833;28;20058;-64
2021/10/31 03:57:56;;;;;;;19.10;13.07;;;;;;;11.74;78.11;99466.72;5014081;28;20046;-64
2021/10/31 04:00:24;;;;;;;22.50;14.57;;;;;;;11.77;78.06;99463.25;5024817;28;20062;-64
2021/10/31 04:02:53;;;;;;;22.70;13.40;;;;;;;11.83;77.58;99460.22;5033697;28;20053;-64
2021/10/31 04:05:20;;;;;;;20.45;13.90;;;;;;;11.85;77.19;99469.88;5034107;28;20490;-64
2021/10/31 04:07:48;;;;;;;19.92;13.43;;;;;;;11.86;76.96;99468.69;5034089;28;20057;-64
2021/10/31 04:10:15;;;;;;;21.85;13.38;;;;;;;11.85;76.94;99466.28;5033819;28;20049;-63
2021/10/31 04:12:43;;;;;;;23.35;13.43;;;;;;;11.87;77.00;99467.56;5034051;28;20060;-64
2021/10/31 04:15:11;;;;;;;20.38;13.68;;;;;;;11.76;77.09;99469.19;5033533;28;20419;-64
2021/10/31 04:17:38;;;;;;;21.35;14.07;;;;;;;11.82;77.11;99469.75;5033799;28;20518;-64
2021/10/31 04:20:08;;;;;;;20.30;13.02;;;;;;;11.79;77.27;99457.31;5033738;28;20058;-64
2021/10/31 04:22:36;;;;;;;18.67;12.50;;;;;;;11.84;77.33;99464.63;5033992;28;20060;-64
2021/10/31 04:25:06;;;;;;;17.70;11.27;;;;;;;11.85;76.40;99460.69;5033789;28;20415;-64
2021/10/31 04:27:33;;;;;;;17.65;12.20;;;;;;;11.82;76.07;99459.41;5033370;28;20061;-64
2021/10/31 04:30:01;;;;;;;17.60;11.75;;;;;;;11.81;75.55;99452.19;5033743;28;20057;-64
2021/10/31 04:32:28;;;;;;;15.85;11.40;;;;;;;11.81;74.93;99457.78;5033202;28;20076;-64
2021/10/31 04:34:55;;;;;;;17.73;13.23;;;;;;;11.81;75.05;99456.97;5033783;28;20484;-64
2021/10/31 04:37:24;;;;;;;18.13;13.13;;;;;;;11.68;76.39;99459.75;5033569;28;20060;-64
2021/10/31 04:39:52;;;;;;;19.17;13.00;;;;;;;11.68;76.89;99448.59;5033688;28;20057;-64
2021/10/31 04:42:19;;;;;;;17.00;12.18;;;;;;;11.62;77.80;99452.75;5033415;28;20053;-63
2021/10/31 04:44:47;;;;;;;19.70;12.50;;;;;;;11.64;77.95;99447.66;5033009;28;20055;-63
2021/10/31 04:47:14;;;;;;;19.50;12.90;;;;;;;11.78;77.67;99452.91;5033164;28;20423;-64
2021/10/31 04:49:42;;;;;;;20.55;13.60;;;;;;;11.74;78.04;99447.22;5032808;28;20057;-64
2021/10/31 04:52:09;;;;;;;18.15;11.35;;;;;;;11.79;77.61;99446.16;5033298;28;20056;-64
2021/10/31 04:54:38;;;;;;;18.88;12.32;;;;;;;11.84;77.99;99453.47;5033354;28;20065;-64
2021/10/31 04:57:08;;;;;;;16.67;12.30;;;;;;;11.88;77.55;99452.47;5032957;28;20049;-64
2021/10/31 04:59:36;;;;;;;16.05;11.20;;;;;;;11.93;77.38;99449.44;5032788;28;20499;-64
2021/10/31 05:02:04;;;;;;;18.98;10.93;;;;;;;11.94;77.24;99445.50;5032876;28;20511;-64
2021/10/31 05:04:32;;;;;;;16.98;11.10;;;;;;;11.91;77.47;99445.38;5033170;28;20065;-64
2021/10/31 05:06:59;;;;;;;17.20;11.45;;;;;;;11.96;76.54;99447.94;5032752;28;20049;-64
2021/10/31 05:09:29;;;;;;;14.23;10.23;;;;;;;11.98;75.84;99435.25;5032709;28;20058;-64
2021/10/31 05:11:57;;;;;;;11.95;8.98;;;;;;;11.93;74.82;99437.47;5032576;28;20049;-64
2021/10/31 05:14:24;;;;;;;15.60;9.80;;;;;;;11.93;74.27;99438.28;5032194;28;20061;-64
2021/10/31 05:16:56;;;;;;;16.35;10.48;;;;;;;11.88;74.41;99430.13;5032735;28;20057;-64
2021/10/31 05:19:23;;;;;;;13.70;10.52;;;;;;;11.83;75.04;99424.78;5032801;28;20053;-64
2021/10/31 05:21:53;;;;;;;17.20;9.90;;;;;;;11.76;74.61;99422.56;5032865;28;20045;-64
2021/10/31 05:24:21;;;;;;;15.82;9.80;;;;;;;11.75;74.54;99420.13;5032347;28;20057;-64
2021/10/31 05:26:48;;;;;;;13.52;9.50;;;;;;;11.71;74.51;99420.00;5032514;28;20058;-64
2021/10/31 05:29:18;;;;;;;12.75;9.25;;;;;;;11.70;74.31;99418.38;5031761;28;20056;-64
2021/10/31 05:31:45;;;;;;;;;;;;;;;11.54;74.38;99415.44;5032692;28;20061;-64
2021/10/31 05:34:13;;;;;;;15.43;9.20;;;;;;;11.54;74.18;99423.81;5032394;28;19921;-64
2021/10/31 05:36:40;;;;;;;13.00;9.02;;;;;;;11.46;74.23;99418.34;5031831;28;20492;-64
2021/10/31 05:39:09;;;;;;;12.32;8.15;;;;;;;11.44;74.22;99423.44;5032353;28;20080;-64
2021/10/31 05:41:37;;;;;;;13.15;9.05;;;;;;;11.34;74.18;99414.38;5032210;28;20053;-64
2021/10/31 05:44:04;;;;;;;10.05;7.35;;;;;;;11.31;74.13;99411.47;5032525;28;20057;-64
2021/10/31 05:46:34;;;;;;;11.82;7.88;;;;;;;11.28;74.12;99421.34;5032209;28;20053;-64
2021/10/31 05:49:02;;;;;;;13.82;8.35;;;;;;;11.22;73.94;99416.34;5013110;28;20077;-64
2021/10/31 05:51:30;;;;;;;12.70;8.10;;;;;;;11.22;73.75;99417.13;5024815;28;20060;-64
2021/10/31 05:53:58;;;;;;;12.18;8.55;;;;;;;11.15;74.12;99412.13;5032682;28;20053;-64
2021/10/31 05:56:25;;;;;;;13.43;8.77;;;;;;;11.10;73.93;99417.09;5032244;28;20426;-64
2021/10/31 05:58:52;;;;;;;11.27;7.60;;;;;;;11.04;73.75;99418.47;5031991;28;20060;-64
2021/10/31 06:01:20;;;;;;;10.90;7.85;;;;;;;10.96;73.83;99415.44;5031842;28;20266;-64
2021/10/31 06:03:48;;;;;;;11.88;7.38;;;;;;;10.94;73.60;99423.34;5032322;28;20471;-64
2021/10/31 06:06:21;;;;;;;10.40;7.77;;;;;;;10.88;73.17;99419.13;5031299;28;20072;-64
2021/10/31 06:08:48;;;;;;;13.40;7.95;;;;;;;10.78;73.44;99416.75;5031930;28;20480;-64
2021/10/31 06:11:16;;;;;;;13.05;7.03;;;;;;;10.75;73.50;99414.66;5031719;28;20053;-64
2021/10/31 06:13:44;;;;;;;11.15;7.90;;;;;;;10.68;73.48;99417.19;5032071;28;20507;-64
2021/10/31 06:16:11;;;;;;;11.13;7.47;;;;;;;10.61;74.11;99416.94;5032146;28;20061;-64
2021/10/31 06:18:39;;;;;;;13.73;7.82;;;;;;;10.59;74.13;99408.09;5031980;28;20076;-64
2021/10/31 06:21:07;;;;;;;12.05;7.78;;;;;;;10.50;73.98;99405.38;5031732;28;20052;-64
2021/10/31 06:23:35;;;;;;;12.40;7.73;;;;;;;10.47;74.11;99406.84;5032000;28;20069;-63
2021/10/31 06:26:04;;;;;;;12.10;7.88;;;;;;;10.42;73.88;99407.09;5032140;28;20056;-64
2021/10/31 06:28:31;;;;;;;8.93;6.68;;;;;;;10.38;74.09;99422.81;5031339;28;20056;-64
2021/10/31 06:30:59;;;;;;;11.57;7.40;;;;;;;10.42;73.89;99409.06;5031980;28;20050;-64
2021/10/31 06:33:26;;;;;;;11.02;7.25;;;;;;;10.41;73.72;99404.63;5030917;28;20054;-64
2021/10/31 06:35:53;;;;;;;10.90;7.22;;;;;;;10.39;73.77;99404.97;5031313;28;20488;-64
2021/10/31 06:38:22;;;;;;;9.57;7.05;;;;;;;10.38;73.90;99400.56;5031055;28;20058;-63
2021/10/31 06:40:50;;;;;;;11.00;7.33;;;;;;;10.28;74.14;99404.53;5031526;28;20060;-64
2021/10/31 06:43:17;;;;;;;9.10;6.38;;;;;;;10.36;73.83;99400.09;5031560;28;20488;-64
2021/10/31 06:45:45;;;;;;;13.60;7.70;;;;;;;10.39;74.23;99401.38;5031825;28;20053;-64
2021/10/31 06:48:13;;;;;;;12.38;6.93;;;;;;;10.45;73.63;99391.66;5019517;28;20064;-64
2021/10/31 06:50:40;;;;;;;10.82;7.63;;;;;;;10.48;73.99;99402.13;5025360;28;20412;-64
2021/10/31 06:53:10;;;;;;;12.35;7.65;;;;;;;10.53;73.75;99397.16;5031646;28;20512;-63
2021/10/31 06:55:39;;;;;;;10.95;7.45;;;;;;;10.65;73.36;99401.16;5031732;28;20054;-64
2021/10/31 06:58:06;;;;;;;12.98;8.80;;;;;;;10.68;73.33;99401.28;5031468;28;20538;-64
2021/10/31 07:00:35;;;;;;;11.50;7.43;;;;;;;10.71;73.07;99411.75;5031533;28;20052;-64
2021/10/31 07:03:03;;;;;;;12.57;8.00;;;;;;;10.83;72.79;99396.22;5031213;28;20061;-64
2021/10/31 07:05:30;;;;;;;10.52;7.25;;;;;;;10.88;72.47;99396.84;5029238;28;20057;-64
2021/10/31 07:07:57;;;;;;;11.35;7.50;;;;;;;10.99;72.24;99393.63;5012063;28;20054;-64
2021/10/31 07:10:25;;;;;;;9.60;7.18;;;;;;;11.07;72.10;99378.78;5013920;28;20050;-64
2021/10/31 07:12:54;;;;;;;11.00;7.22;;;;;;;11.27;71.59;99371.50;5015415;28;20050;-64
2021/10/31 07:15:21;;;;;;;8.18;6.53;;;;;;;11.41;71.57;99376.75;5015426;28;20057;-64
2021/10/31 07:17:52;;;;;;;9.48;5.95;;;;;;;11.64;71.79;99366.78;5029677;28;20064;-64
2021/10/31 07:20:20;;;;;;;10.95;7.32;;;;;;;12.12;71.46;99367.91;5034019;28;20415;-64
2021/10/31 07:22:47;;;;;;;11.50;8.52;;;;;;;12.53;70.22;99368.72;5034819;28;20057;-63
2021/10/31 07:25:17;;;;;;;13.90;8.98;;;;;;;12.96;69.36;99378.31;5035460;28;20053;-63
2021/10/31 07:27:45;;;;;;;11.18;8.52;;;;;;;13.51;67.86;99363.78;5027675;28;20049;-64
2021/10/31 07:30:14;;;;;;;10.50;8.02;;;;;;;14.34;64.90;99358.09;5033384;28;20056;-64
2021/10/31 07:32:41;;;;;;;11.30;9.00;;;;;;;14.72;63.26;99337.72;5032462;28;20049;-64
2021/10/31 07:35:10;;;;;;;8.02;5.82;;;;;;;15.06;62.09;99337.97;5034838;28;20054;-64
2021/10/31 07:37:37;;;;;;;10.00;7.00;;;;;;;15.39;60.64;99337.34;5034112;28;20522;-64
2021/10/31 07:40:07;;;;;;;5.40;4.40;;;;;;;15.50;61.25;99333.91;5034306;28;20068;-64
2021/10/31 07:42:37;;;;;;;5.65;3.10;;;;;;;15.51;61.78;99329.91;5033360;28;20080;-64
2021/10/31 07:45:05;;;;;;;4.95;3.20;;;;;;;15.68;61.79;99317.34;5033873;28;20060;-64
2021/10/31 07:47:34;;;;;;;3.53;2.50;;;;;;;15.28;63.86;99329.91;5027748;28;20057;-64
2021/10/31 07:50:01;;;;;;;5.15;3.05;;;;;;;15.70;62.22;99326.19;5026775;28;20049;-64
2021/10/31 07:52:29;;;;;;;3.15;2.25;;;;;;;15.82;62.22;99317.59;5034021;28;20060;-64
2021/10/31 07:54:58;;;;;;;3.33;1.90;;;;;;;16.01;61.73;99323.09;5034175;28;20046;-63
2021/10/31 07:57:26;;;;;;;3.90;1.88;;;;;;;16.23;60.97;99317.75;5033457;28;20064;-62
2021/10/31 07:59:54;;;;;;;3.05;1.95;;;;;;;16.73;59.69;99320.38;5031510;28;20058;-62
2021/10/31 08:02:21;;;;;;;2.55;1.60;;;;;;;16.81;59.71;99310.88;5030316;28;20510;-62
2021/10/31 08:04:50;;;;;;;2.45;1.75;;;;;;;16.64;59.93;99310.25;5018310;28;20522;-64
2021/10/31 08:07:18;;;;;;;1.90;1.60;;;;;;;16.64;59.40;99299.00;5015942;28;20060;-64
2021/10/31 08:09:45;;;;;;;1.92;1.58;;;;;;;17.06;58.52;99305.50;5014378;28;20054;-64
2021/10/31 08:12:13;;;;;;;2.63;1.67;;;;;;;16.69;59.38;99297.03;5022353;28;20498;-64
2021/10/31 08:14:40;;;;;;;2.90;1.45;;;;;;;16.38;59.99;99307.53;5030676;28;20057;-63
2021/10/31 08:17:07;;;;;;;2.55;1.50;;;;;;;16.20;60.61;99296.84;5025859;28;20087;-63
2021/10/31 08:19:35;;;;;;;3.10;1.48;;;;;;;16.13;61.07;99293.16;5021343;28;20052;-63
2021/10/31 08:22:04;;;;;;;2.22;1.35;;;;;;;16.11;61.01;99287.91;5021712;28;20050;-63
2021/10/31 08:24:31;;;;;;;1.60;1.30;;;;;;;15.89;61.97;99292.41;5013462;28;20073;-63
2021/10/31 08:26:58;;;;;;;3.15;1.58;;;;;;;15.83;62.13;99283.53;5014308;28;20416;-63
2021/10/31 08:29:26;;;;;;;3.08;1.23;;;;;;;15.85;62.37;99285.13;5022672;28;20054;-62
2021/10/31 08:31:56;;;;;;;3.17;1.63;;;;;;;16.07;61.89;99281.44;5020083;28;20050;-65
2021/10/31 08:34:25;;;;;;;2.05;1.60;;;;;;;16.26;61.58;99288.09;5029806;28;20045;-63
2021/10/31 08:36:52;;;;;;;2.63;1.80;;;;;;;16.30;61.59;99278.53;5027290;28;20484;-63
2021/10/31 08:39:21;;;;;;;2.78;1.67;;;;;;;16.10;62.04;99288.28;5029280;28;20503;-63
2021/10/31 08:41:48;;;;;;;3.80;1.90;;;;;;;16.35;61.87;99277.38;5021784;28;20064;-63
2021/10/31 08:44:16;;;;;;;2.42;1.50;;;;;;;17.07;59.97;99262.09;5023863;28;20049;-63
2021/10/31 08:46:43;;;;;;;2.20;1.27;;;;;;;18.27;56.49;99262.53;5027487;28;20049;-63
2021/10/31 08:49:11;;;;;;;4.22;1.58;;;;;;;18.71;55.41;99263.47;5023940;28;20058;-63
2021/10/31 08:51:39;;;;;;;1.73;1.10;;;;;;;19.61;52.57;99265.19;5023915;28;20062;-63
2021/10/31 08:54:06;;;;;;;3.15;1.52;;;;;;;19.96;51.37;99265.53;5017376;28;20408;-63
2021/10/31 08:56:35;;;;;;;4.00;1.52;;;;;;;19.93;50.75;99261.50;5028095;28;20058;-63
2021/10/31 08:59:03;;;;;;;2.78;1.00;;;;;;;20.45;49.96;99255.25;5020569;28;20480;-63
2021/10/31 09:01:32;;;;;;;1.40;0.90;;;;;;;21.35;47.52;99246.97;5018271;28;20046;-64
2021/10/31 09:04:00;;;;;;;1.63;1.13;;;;;;;21.75;46.74;99249.47;5014499;28;20058;-63
2021/10/31 09:06:28;;;;;;;1.63;1.00;;;;;;;22.28;45.09;99239.59;5015176;28;20065;-63
2021/10/31 09:08:57;;;;;;;2.50;1.30;;;;;;;22.66;43.94;99228.16;5024085;28;20058;-63
2021/10/31 09:11:24;;;;;;;2.03;1.10;;;;;;;22.54;43.91;99232.34;5021206;28;20057;-63
2021/10/31 09:13:54;;;;;;;2.15;1.15;;;;;;;23.03;42.82;99240.59;5019458;28;20046;-63
2021/10/31 09:16:21;;;;;;;;;;;;;;;22.29;44.57;99232.69;5021066;28;20045;-63
2021/10/31 09:18:48;;;;;;;2.78;1.23;;;;;;;22.46;43.92;99220.28;5024338;28;20288;-62
2021/10/31 09:21:18;;;;;;;2.08;1.00;;;;;;;22.85;43.33;99224.63;5016317;28;20069;-63
2021/10/31 09:23:45;;;;;;;2.15;0.98;;;;;;;24.18;40.90;99227.19;5021780;28;20057;-63
2021/10/31 09:26:12;;;;;;;2.15;0.95;;;;;;;24.62;39.43;99222.22;5013060;28;20065;-63
2021/10/31 09:28:42;;;;;;;1.60;1.10;;;;;;;24.62;39.30;99223.00;5015095;28;20068;-62
2021/10/31 09:31:11;;;;;;;1.80;1.13;;;;;;;24.13;40.08;99214.28;5024819;28;20056;-62
2021/10/31 09:33:39;;;;;;;2.17;1.17;;;;;;;23.33;42.17;99224.69;5031190;28;20407;-62
2021/10/31 09:36:07;;;;;;;2.05;1.38;;;;;;;21.79;45.14;99211.38;5032574;28;20053;-63
2021/10/31 09:38:35;;;;;;;2.45;1.35;;;;;;;22.31;43.89;99201.88;5023710;28;20052;-63
2021/10/31 09:41:02;;;;;;;2.85;2.05;;;;;;;21.41;46.25;99183.00;5013619;28;20061;-63
2021/10/31 09:43:36;;;;;;;4.30;1.80;;;;;;;21.46;46.33;99185.41;5030624;28;20509;-63
2021/10/31 09:46:05;;;;;;;2.70;1.70;;;;;;;20.89;47.85;99188.69;5017463;28;20423;-63
2021/10/31 09:48:34;;;;;;;3.17;2.08;;;;;;;20.70;48.63;99192.88;5026065;28;20082;-63
2021/10/31 09:51:03;;;;;;;2.30;2.10;;;;;;;21.14;47.36;99171.50;4988019;28;20089;-63
2021/10/31 09:53:30;;;;;;;2.50;1.90;;;;;;;21.60;46.47;99164.59;4983729;28;20465;-62
2021/10/31 09:55:58;;;;;;;2.75;2.13;;;;;;;21.14;47.24;99165.03;4982545;28;20062;-63
2021/10/31 09:58:33;;;;;;;3.33;1.92;;;;;;;20.34;49.81;99172.47;4990080;28;20055;-62
2021/10/31 10:01:09;;;;;;;3.47;1.80;;;;;;;20.30;50.12;99164.00;4982968;28;20054;-62
2021/10/31 10:03:38;;;;;;;2.33;2.03;;;;;;;20.44;49.53;99174.44;4990950;28;20061;-62
2021/10/31 10:06:14;;;;;;;2.35;1.65;;;;;;;20.06;50.58;99175.03;4993027;28;20485;-62
2021/10/31 10:08:58;;;;;;;2.67;1.80;;;;;;;20.39;49.98;99163.53;4987076;28;20050;-62
2021/10/31 10:11:27;;;;;;;2.40;1.60;;;;;;;20.85;49.11;99173.78;4980405;28;20057;-62
2021/10/31 10:13:54;;;;;;;3.20;2.00;;;;;;;21.56;48.07;99163.03;4992385;28;20050;-63
2021/10/31 10:16:28;;;;;;;2.75;1.80;;;;;;;21.49;47.99;99156.22;4974566;28;20054;-63
2021/10/31 10:18:57;;;;;;;2.75;1.50;;;;;;;22.10;45.96;99163.22;4974604;28;20046;-62
2021/10/31 10:21:27;;;;;;;2.67;1.70;;;;;;;22.51;45.21;99159.44;4973240;28;20533;-63
2021/10/31 10:23:57;;;;;;;3.70;1.63;;;;;;;21.85;46.94;99170.00;4982896;28;20607;-62
2021/10/31 10:26:32;;;;;;;3.05;1.55;;;;;;;21.67;47.42;99163.72;4990018;28;20053;-62
2021/10/31 10:29:17;;;;;;;3.13;1.95;;;;;;;21.28;48.19;99164.91;4983484;28;20061;-62
2021/10/31 10:31:48;;;;;;;3.05;1.40;;;;;;;21.36;48.12;99177.78;4980231;28;20053;-64
2021/10/31 10:34:17;;;;;;;1.85;1.50;;;;;;;21.02;48.99;99166.34;4982144;28;20067;-63
2021/10/31 10:36:47;;;;;;;3.22;1.60;;;;;;;21.54;48.02;99154.94;4976338;28;20057;-63
2021/10/31 10:39:19;;;;;;;3.63;1.50;;;;;;;22.40;46.23;99153.09;4990945;28;20057;-63
2021/10/31 10:41:49;;;;;;;2.00;1.30;;;;;;;23.44;43.81;99138.00;4978058;28;20413;-64
2021/10/31 10:44:25;;;;;;;1.60;1.30;;;;;;;23.26;43.77;99131.84;4993954;28;20489;-63
2021/10/31 10:46:55;;;;;;;1.77;1.20;;;;;;;23.14;44.21;99121.13;4979619;28;20070;-63
2021/10/31 10:49:24;;;;;;;2.53;1.35;;;;;;;22.85;45.77;99115.94;4989693;28;20064;-63
2021/10/31 10:52:21;;;;;;;3.65;1.40;;;;;;;22.94;44.94;99106.84;5024089;28;20049;-63
2021/10/31 10:55:01;;;;;;;3.25;1.10;;;;;;;23.06;44.59;99106.25;5032125;28;20060;-62
2021/10/31 10:57:31;;;;;;;2.28;1.40;;;;;;;22.99;44.98;99107.13;5024165;28;20058;-62
2021/10/31 10:59:59;;;;;;;;;;;;;;;23.38;44.02;99091.44;5016449;28;20049;-62
2021/10/31 11:02:28;;;;;;;2.38;1.30;;;;;;;22.59;46.11;99092.81;5015402;28;19921;-62
2021/10/31 11:05:00;;;;;;;2.30;1.15;;;;;;;22.90;45.16;99084.19;5017366;28;20424;-62
2021/10/31 11:07:34;;;;;;;3.05;1.35;;;;;;;23.79;43.72;99090.25;5023731;28;20407;-62
2021/10/31 11:10:06;;;;;;;2.38;1.40;;;;;;;23.46;44.67;99084.38;5025837;28;20484;-62
2021/10/31 11:12:35;;;;;;;2.65;1.20;;;;;;;23.36;44.09;99076.06;5034414;28;20049;-63
2021/10/31 11:15:05;;;;;;;1.52;1.10;;;;;;;22.31;46.50;99079.09;5034026;28;20049;-63
2021/10/31 11:17:34;;;;;;;1.83;1.00;;;;;;;21.59;48.45;99074.38;5022558;28;20058;-63
2021/10/31 11:20:06;;;;;;;3.30;1.20;;;;;;;20.51;51.31;99092.34;5026322;28;20072;-62
2021/10/31 11:22:33;;;;;;;2.38;1.50;;;;;;;20.48;51.10;99091.16;5032962;28;20057;-63
2021/10/31 11:25:01;;;;;;;1.70;1.10;;;;;;;20.24;52.29;99092.97;5032241;28;20049;-62
2021/10/31 11:27:31;;;;;;;1.77;1.00;;;;;;;19.78;53.63;99082.72;5027604;28;20435;-64
2021/10/31 11:30:00;;;;;;;1.60;1.05;;;;;;;19.71;54.07;99074.28;5030545;28;20050;-65
2021/10/31 11:32:29;;;;;;;2.00;1.13;;;;;;;19.86;53.76;99078.66;5033095;28;20415;-64
2021/10/31 11:34:57;;;;;;;;;;;;;;;19.80;53.58;99071.81;5026228;28;20065;-64
2021/10/31 11:37:28;;;;;;;2.25;1.05;;;;;;;20.08;52.76;99070.03;5034011;28;19920;-64